Terminal Aerodrome Forecast
Issued by NWS

Home | Current Version | Previous Version | Text Only | Print | Product List | Glossary On
Versions: 1 2 3 4 5 6 7 8 9 10 11 12 13 14 15
558
FTUS42 KFFC 210530
TAFPDK
TAF
KPDK 210530Z 2106/2206 VRB03KT P6SM SCT250
     FM211400 29003KT P6SM FEW040
     FM211700 20006KT P6SM SCT050
     FM212000 19007KT P6SM VCSH SCT060
     FM220100 VRB03KT P6SM FEW060=

USA.gov is the U.S. government's official web portal to all federal, state and local government web resources and services.